createdAt,value
2018-09-03T00:00:33.100Z,99.90
2018-09-03T00:03:02.452Z,99.90
2018-09-03T00:05:31.873Z,99.90
2018-09-03T00:08:01.225Z,99.90
2018-09-03T00:10:30.608Z,99.90
2018-09-03T00:13:00.031Z,99.90
2018-09-03T00:15:29.360Z,99.90
2018-09-03T00:17:58.714Z,99.90
2018-09-03T00:20:28.238Z,99.90
2018-09-03T00:22:57.573Z,99.90
2018-09-03T00:25:26.923Z,99.90
2018-09-03T00:27:56.528Z,99.90
2018-09-03T00:30:26.806Z,99.90
2018-09-03T00:33:01.181Z,99.90
2018-09-03T00:35:35.638Z,99.90
2018-09-03T00:38:10.045Z,99.90
2018-09-03T00:40:44.436Z,99.90
2018-09-03T00:43:18.963Z,99.90
2018-09-03T00:45:53.428Z,99.90
2018-09-03T00:48:22.779Z,99.90
2018-09-03T00:50:52.260Z,99.90
2018-09-03T00:53:21.638Z,99.90
2018-09-03T00:55:50.988Z,99.90
2018-09-03T00:58:20.493Z,99.90
2018-09-03T01:00:49.874Z,99.90
2018-09-03T01:03:19.212Z,99.90
2018-09-03T01:05:48.833Z,99.90
2018-09-03T01:08:18.221Z,99.90
2018-09-03T01:10:47.609Z,99.90
2018-09-03T01:13:17.012Z,99.90
2018-09-03T01:15:46.394Z,99.90
2018-09-03T01:18:15.769Z,99.90
2018-09-03T01:20:45.355Z,99.90
2018-09-03T01:23:14.705Z,99.90
2018-09-03T01:25:44.081Z,99.90
2018-09-03T01:28:13.430Z,99.90
2018-09-03T01:30:43.375Z,99.90
2018-09-03T01:33:12.723Z,99.90
2018-09-03T01:35:42.078Z,99.90
2018-09-03T01:38:11.531Z,99.90
2018-09-03T01:40:40.953Z,99.90
2018-09-03T01:43:10.289Z,99.90
2018-09-03T01:45:39.625Z,99.90
2018-09-03T01:48:09.076Z,99.90
2018-09-03T01:50:38.463Z,99.90
2018-09-03T01:53:07.812Z,99.90
2018-09-03T01:55:37.121Z,99.90
2018-09-03T01:58:06.829Z,99.90
2018-09-03T02:00:36.258Z,99.90
2018-09-03T02:03:05.886Z,99.90
2018-09-03T02:05:35.221Z,99.90
2018-09-03T02:08:04.724Z,99.90
2018-09-03T02:10:34.200Z,99.90
2018-09-03T02:13:03.553Z,99.90
2018-09-03T02:15:32.921Z,99.90
2018-09-03T02:18:02.280Z,99.90
2018-09-03T02:20:31.725Z,99.90
2018-09-03T02:23:01.377Z,99.90
2018-09-03T02:25:30.748Z,99.90
2018-09-03T02:28:00.084Z,99.90
2018-09-03T02:30:29.500Z,99.90
2018-09-03T02:32:58.960Z,99.90
2018-09-03T02:35:28.634Z,99.90
2018-09-03T02:37:58.038Z,99.90
2018-09-03T02:40:27.439Z,99.90
2018-09-03T02:42:56.773Z,99.90
2018-09-03T02:45:26.123Z,99.90
2018-09-03T02:47:55.443Z,99.90
2018-09-03T02:50:24.812Z,99.90
2018-09-03T02:52:54.150Z,99.90
2018-09-03T02:55:23.549Z,99.90
2018-09-03T02:57:52.935Z,99.90
2018-09-03T03:00:25.792Z,99.90
2018-09-03T03:02:56.629Z,99.90
2018-09-03T03:05:26.433Z,99.90
2018-09-03T03:07:56.060Z,99.90
2018-09-03T03:10:25.630Z,99.90
2018-09-03T03:12:55.061Z,99.90
2018-09-03T03:15:24.404Z,99.90
2018-09-03T03:17:53.761Z,99.90
2018-09-03T03:20:23.195Z,99.90
2018-09-03T03:22:52.539Z,99.90
2018-09-03T03:25:21.980Z,99.90
2018-09-03T03:27:51.321Z,99.90
2018-09-03T03:30:20.753Z,99.90
2018-09-03T03:32:50.208Z,99.90
2018-09-03T03:35:19.544Z,99.90
2018-09-03T03:37:49.693Z,99.90
2018-09-03T03:40:20.018Z,99.90
2018-09-03T03:42:49.366Z,99.90
2018-09-03T03:45:18.805Z,99.90
2018-09-03T03:47:48.154Z,99.90
2018-09-03T03:50:17.590Z,99.90
2018-09-03T03:52:47.002Z,99.90
2018-09-03T03:55:16.555Z,99.90
2018-09-03T03:57:46.014Z,99.90
2018-09-03T04:00:15.554Z,99.90
2018-09-03T04:02:44.900Z,99.90
2018-09-03T04:05:14.283Z,99.90
2018-09-03T04:07:43.687Z,99.90
2018-09-03T04:10:13.113Z,99.90
2018-09-03T04:12:46.917Z,99.90
2018-09-03T04:15:16.301Z,99.90
2018-09-03T04:17:46.004Z,99.90
2018-09-03T04:20:15.412Z,99.90
2018-09-03T04:22:44.911Z,99.90
2018-09-03T04:25:14.373Z,99.90
2018-09-03T04:27:43.945Z,99.90
2018-09-03T04:30:13.460Z,99.90
2018-09-03T04:32:42.806Z,99.90
2018-09-03T04:35:12.168Z,99.90
2018-09-03T04:37:41.521Z,99.90
2018-09-03T04:40:11.001Z,99.90
2018-09-03T04:42:40.341Z,99.90
2018-09-03T04:45:09.745Z,99.90
2018-09-03T04:47:39.434Z,99.90
2018-09-03T04:50:09.035Z,99.90
2018-09-03T04:52:38.401Z,99.90
2018-09-03T04:55:07.913Z,99.90
2018-09-03T04:57:37.257Z,99.90
2018-09-03T05:00:07.284Z,99.90
2018-09-03T05:02:36.636Z,99.90
2018-09-03T05:05:06.174Z,99.90
2018-09-03T05:07:35.597Z,99.90
2018-09-03T05:10:05.487Z,99.90
2018-09-03T05:12:34.837Z,99.90
2018-09-03T05:15:04.318Z,99.90
2018-09-03T05:17:33.846Z,99.90
2018-09-03T05:20:03.264Z,99.90
2018-09-03T05:22:32.775Z,99.90
2018-09-03T05:25:02.216Z,99.90
2018-09-03T05:27:31.712Z,99.90
2018-09-03T05:30:01.475Z,99.90
2018-09-03T05:32:30.907Z,99.90
2018-09-03T05:35:00.377Z,99.90
2018-09-03T05:37:29.833Z,99.90
2018-09-03T05:39:59.475Z,99.90
2018-09-03T05:42:28.869Z,99.90
2018-09-03T05:44:58.441Z,99.90
2018-09-03T05:47:27.927Z,99.90
2018-09-03T05:49:57.800Z,99.90
2018-09-03T05:52:27.281Z,99.90
2018-09-03T05:54:56.849Z,99.90
2018-09-03T05:57:26.394Z,99.90
2018-09-03T05:59:55.997Z,99.90
2018-09-03T06:02:25.781Z,99.90
2018-09-03T06:04:55.411Z,99.90
2018-09-03T06:07:24.883Z,99.90
2018-09-03T06:09:54.683Z,99.90
2018-09-03T06:12:24.249Z,99.90
2018-09-03T06:14:53.720Z,99.90
2018-09-03T06:17:23.422Z,99.90
2018-09-03T06:19:52.985Z,99.90
2018-09-03T06:22:22.544Z,99.90
2018-09-03T06:24:52.057Z,99.90
2018-09-03T06:27:21.898Z,99.90
2018-09-03T06:29:51.657Z,99.90
2018-09-03T06:32:21.179Z,99.90
2018-09-03T06:34:50.671Z,99.90
2018-09-03T06:37:20.145Z,99.90
2018-09-03T06:39:49.732Z,99.90
2018-09-03T06:42:19.411Z,99.90
2018-09-03T06:44:49.381Z,99.90
2018-09-03T06:47:18.943Z,99.90
2018-09-03T06:49:48.661Z,99.90
2018-09-03T06:52:18.183Z,99.90
2018-09-03T06:54:47.848Z,99.90
2018-09-03T06:57:17.305Z,99.90
2018-09-03T06:59:46.969Z,99.90
2018-09-03T07:02:16.469Z,99.90
2018-09-03T07:04:45.980Z,99.90
2018-09-03T07:07:15.449Z,99.90
2018-09-03T07:09:44.953Z,99.90
2018-09-03T07:12:14.609Z,99.90
2018-09-03T07:14:44.173Z,99.90
2018-09-03T07:17:13.650Z,99.90
2018-09-03T07:19:43.317Z,99.90
2018-09-03T07:22:12.754Z,99.90
2018-09-03T07:24:42.268Z,99.90
2018-09-03T07:27:11.800Z,99.90
2018-09-03T07:29:41.510Z,99.90
2018-09-03T07:32:11.156Z,99.90
2018-09-03T07:34:40.706Z,99.90
2018-09-03T07:37:10.204Z,99.90
2018-09-03T07:39:40.812Z,99.90
2018-09-03T07:42:10.273Z,99.90
2018-09-03T07:44:39.777Z,99.90
2018-09-03T07:47:09.304Z,99.90
2018-09-03T07:49:39.270Z,99.90
2018-09-03T07:52:08.696Z,99.90
2018-09-03T07:54:38.276Z,99.90
2018-09-03T07:57:07.752Z,99.90
2018-09-03T07:59:37.621Z,99.90
2018-09-03T08:02:07.462Z,99.90
2018-09-03T08:04:37.017Z,99.90
2018-09-03T08:07:06.498Z,99.90
2018-09-03T08:09:35.918Z,99.90
2018-09-03T08:12:05.757Z,99.90
2018-09-03T08:14:35.248Z,99.90
2018-09-03T08:17:04.742Z,99.90
2018-09-03T08:19:34.256Z,99.90
2018-09-03T08:22:04.225Z,99.90
2018-09-03T08:24:33.840Z,99.90
2018-09-03T08:27:03.521Z,99.90
2018-09-03T08:29:33.429Z,99.90
2018-09-03T08:32:03.279Z,99.90
2018-09-03T08:34:32.924Z,99.90
2018-09-03T08:37:02.428Z,99.90
2018-09-03T08:39:31.932Z,99.90
2018-09-03T08:42:01.519Z,99.90
2018-09-03T08:44:31.155Z,99.90
2018-09-03T08:47:00.894Z,99.90
2018-09-03T08:49:30.651Z,99.90
2018-09-03T08:52:00.237Z,99.90
2018-09-03T08:54:29.733Z,99.90
2018-09-03T08:56:59.109Z,99.90
2018-09-03T08:59:28.545Z,99.90
2018-09-03T09:01:58.213Z,99.90
2018-09-03T09:04:27.797Z,99.90
2018-09-03T09:06:57.349Z,99.90
2018-09-03T09:09:26.916Z,99.90
2018-09-03T09:11:56.440Z,99.90
2018-09-03T09:14:25.886Z,99.90
2018-09-03T09:16:55.352Z,99.90
2018-09-03T09:19:24.801Z,99.90
2018-09-03T09:21:54.276Z,99.90
2018-09-03T09:24:23.808Z,99.90
2018-09-03T09:26:53.315Z,99.90
2018-09-03T09:29:22.777Z,99.90
2018-09-03T09:31:52.260Z,99.90
2018-09-03T09:34:21.801Z,99.90
2018-09-03T09:36:51.532Z,99.90
2018-09-03T09:39:21.058Z,99.90
2018-09-03T09:41:50.691Z,99.90
2018-09-03T09:44:20.150Z,99.90
2018-09-03T09:46:49.618Z,99.90
2018-09-03T09:49:19.245Z,99.90
2018-09-03T09:51:48.759Z,99.90
2018-09-03T09:54:18.165Z,99.90
2018-09-03T09:56:47.639Z,99.90
2018-09-03T09:59:17.084Z,99.90
2018-09-03T10:01:46.628Z,99.90
2018-09-03T10:04:16.141Z,99.90
2018-09-03T10:06:45.600Z,98.80
2018-09-03T10:09:15.061Z,99.90
2018-09-03T10:11:44.876Z,98.50
2018-09-03T10:14:14.428Z,99.80
2018-09-03T10:16:43.921Z,98.40
2018-09-03T10:19:14.115Z,97.40
2018-09-03T10:21:43.638Z,97.70
2018-09-03T10:24:13.157Z,98.20
2018-09-03T10:26:42.836Z,96.20
2018-09-03T10:29:12.510Z,95.90
2018-09-03T10:31:44.078Z,96.90
2018-09-03T10:34:13.572Z,97.70
2018-09-03T10:36:43.210Z,96.20
2018-09-03T10:39:12.721Z,96.00
2018-09-03T10:41:42.224Z,95.80
2018-09-03T10:44:11.773Z,97.10
2018-09-03T10:46:41.313Z,92.30
2018-09-03T10:49:10.764Z,96.30
2018-09-03T10:51:40.368Z,92.10
2018-09-03T10:54:09.854Z,94.00
2018-09-03T10:56:39.342Z,91.90
2018-09-03T10:59:08.809Z,93.10
2018-09-03T11:01:38.320Z,91.10
2018-09-03T11:04:07.801Z,91.30
2018-09-03T11:06:37.324Z,88.00
2018-09-03T11:09:09.594Z,90.00
2018-09-03T11:11:40.452Z,91.30
2018-09-03T11:14:10.377Z,91.30
2018-09-03T11:16:39.892Z,92.90
2018-09-03T11:19:09.396Z,91.30
2018-09-03T11:21:39.072Z,90.20
2018-09-03T11:24:08.440Z,91.40
2018-09-03T11:26:37.943Z,92.70
2018-09-03T11:29:07.364Z,93.80
2018-09-03T11:31:37.004Z,91.80
2018-09-03T11:34:06.645Z,91.80
2018-09-03T11:36:36.556Z,90.40
2018-09-03T11:39:08.643Z,93.30
2018-09-03T11:41:38.222Z,90.20
2018-09-03T11:44:07.761Z,91.50
2018-09-03T11:46:37.661Z,90.10
2018-09-03T11:49:07.433Z,90.70
2018-09-03T11:51:37.005Z,93.50
2018-09-03T11:54:06.510Z,89.70
2018-09-03T11:56:36.003Z,89.00
2018-09-03T11:59:05.573Z,90.90
2018-09-03T12:01:35.351Z,87.00
2018-09-03T12:04:04.897Z,75.40
2018-09-03T12:06:34.386Z,78.00
2018-09-03T12:09:04.909Z,69.40
2018-09-03T12:11:34.516Z,72.60
2018-09-03T12:14:08.461Z,77.60
2018-09-03T12:16:38.085Z,66.00
2018-09-03T12:19:07.648Z,65.70
2018-09-03T12:21:37.101Z,66.60
2018-09-03T12:24:06.605Z,72.00
2018-09-03T12:26:36.084Z,69.30
2018-09-03T12:29:05.545Z,65.20
2018-09-03T12:31:35.085Z,61.00
2018-09-03T12:34:04.569Z,64.00
2018-09-03T12:36:34.124Z,65.20
2018-09-03T12:39:04.160Z,63.70
2018-09-03T12:41:33.978Z,59.60
2018-09-03T12:44:03.477Z,59.80
2018-09-03T12:46:33.094Z,58.90
2018-09-03T12:49:02.749Z,63.10
2018-09-03T12:51:32.216Z,62.90
2018-09-03T12:54:01.716Z,62.30
2018-09-03T12:56:31.284Z,58.90
2018-09-03T12:59:00.862Z,59.20
2018-09-03T13:01:30.924Z,57.30
2018-09-03T13:04:00.513Z,57.60
2018-09-03T13:06:29.982Z,59.10
2018-09-03T13:08:59.509Z,57.60
2018-09-03T13:11:29.049Z,55.90
2018-09-03T13:13:58.533Z,57.90
2018-09-03T13:16:27.951Z,60.50
2018-09-03T13:18:57.583Z,60.70
2018-09-03T13:21:27.296Z,65.40
2018-09-03T13:23:56.921Z,69.60
2018-09-03T13:26:26.510Z,63.00
2018-09-03T13:28:56.038Z,56.90
2018-09-03T13:31:25.889Z,54.50
2018-09-03T13:33:55.797Z,56.50
2018-09-03T13:36:26.059Z,59.90
2018-09-03T13:38:55.581Z,56.10
2018-09-03T13:41:25.048Z,56.10
2018-09-03T13:43:54.522Z,54.40
2018-09-03T13:46:24.028Z,55.90
2018-09-03T13:48:53.520Z,55.30
2018-09-03T13:51:24.136Z,55.80
2018-09-03T13:53:53.748Z,53.30
2018-09-03T13:56:23.288Z,52.10
2018-09-03T13:58:52.729Z,51.90
2018-09-03T14:01:22.389Z,56.20
2018-09-03T14:03:52.024Z,55.00
2018-09-03T14:06:21.684Z,52.30
2018-09-03T14:08:51.190Z,50.00
2018-09-03T14:11:20.783Z,50.10
2018-09-03T14:13:50.474Z,51.10
2018-09-03T14:16:19.908Z,53.30
2018-09-03T14:18:49.380Z,51.80
2018-09-03T14:21:19.157Z,48.70
2018-09-03T14:23:48.733Z,49.90
2018-09-03T14:26:18.429Z,50.20
2018-09-03T14:28:48.008Z,50.60
2018-09-03T14:31:17.643Z,50.50
2018-09-03T14:33:47.188Z,50.90
2018-09-03T14:36:16.668Z,51.80
2018-09-03T14:38:46.138Z,51.90
2018-09-03T14:41:15.696Z,49.60
2018-09-03T14:43:45.492Z,46.60
2018-09-03T14:46:15.019Z,48.10
2018-09-03T14:48:44.501Z,47.30
2018-09-03T14:51:14.337Z,46.80
2018-09-03T14:53:43.872Z,49.10
2018-09-03T14:56:13.416Z,50.60
2018-09-03T14:58:43.274Z,49.60
2018-09-03T15:01:13.786Z,48.30
2018-09-03T15:03:43.298Z,49.00
2018-09-03T15:06:12.765Z,48.00
2018-09-03T15:08:42.255Z,50.10
2018-09-03T15:11:11.802Z,50.60
2018-09-03T15:13:41.229Z,49.30
2018-09-03T15:16:10.825Z,48.80
2018-09-03T15:18:40.292Z,48.60
2018-09-03T15:21:09.819Z,51.90
2018-09-03T15:23:39.237Z,52.40
2018-09-03T15:26:08.732Z,56.70
2018-09-03T15:28:38.176Z,60.30
2018-09-03T15:31:07.852Z,59.90
2018-09-03T15:33:37.355Z,60.60
2018-09-03T15:36:07.158Z,60.90
2018-09-03T15:38:36.618Z,64.60
2018-09-03T15:41:06.593Z,62.40
2018-09-03T15:43:36.178Z,69.60
2018-09-03T15:46:07.183Z,65.20
2018-09-03T15:48:36.701Z,66.20
2018-09-03T15:51:06.487Z,70.50
2018-09-03T15:53:36.110Z,67.90
2018-09-03T15:56:05.852Z,69.10
2018-09-03T15:58:35.382Z,68.80
2018-09-03T16:01:04.913Z,77.30
2018-09-03T16:03:34.468Z,70.70
2018-09-03T16:06:03.997Z,75.20
2018-09-03T16:08:33.485Z,74.90
2018-09-03T16:11:03.023Z,73.60
2018-09-03T16:13:32.460Z,75.70
2018-09-03T16:16:01.892Z,74.30
2018-09-03T16:18:31.421Z,78.40
2018-09-03T16:21:01.103Z,76.50
2018-09-03T16:23:30.534Z,80.70
2018-09-03T16:26:00.072Z,81.70
2018-09-03T16:28:29.473Z,81.30
2018-09-03T16:30:59.004Z,82.50
2018-09-03T16:33:28.962Z,87.40
2018-09-03T16:35:58.582Z,86.30
2018-09-03T16:38:28.072Z,86.20
2018-09-03T16:40:57.556Z,84.90
2018-09-03T16:43:27.115Z,87.10
2018-09-03T16:45:56.596Z,87.80
2018-09-03T16:48:26.194Z,90.10
2018-09-03T16:50:55.737Z,86.00
2018-09-03T16:53:25.315Z,82.50
2018-09-03T16:55:54.845Z,85.70
2018-09-03T16:58:24.305Z,86.90
2018-09-03T17:00:53.834Z,88.80
2018-09-03T17:03:23.338Z,90.20
2018-09-03T17:05:52.803Z,88.60
2018-09-03T17:08:22.794Z,90.90
2018-09-03T17:10:52.287Z,90.30
2018-09-03T17:13:21.817Z,90.90
2018-09-03T17:15:51.296Z,91.80
2018-09-03T17:18:20.853Z,91.00
2018-09-03T17:20:50.450Z,90.70
2018-09-03T17:23:19.986Z,90.70
2018-09-03T17:25:49.472Z,90.80
2018-09-03T17:28:18.997Z,91.50
2018-09-03T17:30:48.475Z,92.50
2018-09-03T17:33:17.948Z,92.20
2018-09-03T17:35:47.496Z,91.80
2018-09-03T17:38:17.217Z,92.30
2018-09-03T17:40:47.116Z,92.30
2018-09-03T17:43:16.621Z,92.20
2018-09-03T17:45:46.208Z,92.20
2018-09-03T17:48:15.820Z,92.60
2018-09-03T17:50:45.460Z,92.90
2018-09-03T17:53:14.988Z,93.00
2018-09-03T17:55:44.476Z,93.70
2018-09-03T17:58:13.920Z,93.60
2018-09-03T18:00:43.567Z,94.20
2018-09-03T18:03:13.385Z,94.50
2018-09-03T18:05:42.932Z,94.10
2018-09-03T18:08:12.359Z,95.40
2018-09-03T18:10:42.004Z,95.30
2018-09-03T18:13:12.169Z,95.80
2018-09-03T18:15:41.596Z,96.80
2018-09-03T18:18:11.175Z,96.90
2018-09-03T18:20:40.708Z,99.00
2018-09-03T18:23:10.205Z,99.00
2018-09-03T18:25:39.680Z,98.10
2018-09-03T18:28:09.233Z,98.10
2018-09-03T18:30:38.909Z,98.40
2018-09-03T18:33:08.363Z,98.50
2018-09-03T18:35:37.831Z,98.30
2018-09-03T18:38:07.249Z,98.20
2018-09-03T18:40:36.844Z,99.50
2018-09-03T18:43:06.610Z,99.60
2018-09-03T18:45:36.429Z,99.90
2018-09-03T18:48:06.046Z,99.90
2018-09-03T18:50:35.597Z,99.90
2018-09-03T18:53:05.211Z,99.90
2018-09-03T18:55:34.720Z,99.90
2018-09-03T18:58:04.196Z,99.90
2018-09-03T19:00:33.737Z,99.90
2018-09-03T19:03:03.142Z,99.90
2018-09-03T19:05:32.573Z,99.90
2018-09-03T19:08:02.053Z,99.90
2018-09-03T19:10:31.610Z,99.90
2018-09-03T19:13:01.109Z,99.90
2018-09-03T19:15:30.629Z,99.90
2018-09-03T19:18:00.158Z,99.90
2018-09-03T19:20:29.832Z,99.90
2018-09-03T19:22:59.248Z,99.90
2018-09-03T19:25:28.681Z,99.90
2018-09-03T19:27:58.089Z,99.90
2018-09-03T19:30:27.616Z,99.90
2018-09-03T19:32:57.009Z,99.90
2018-09-03T19:35:26.527Z,99.90
2018-09-03T19:37:56.107Z,99.90
2018-09-03T19:40:25.604Z,99.90
2018-09-03T19:42:55.159Z,99.90
2018-09-03T19:45:24.666Z,99.90
2018-09-03T19:47:54.137Z,99.90
2018-09-03T19:50:23.812Z,99.90
2018-09-03T19:52:53.297Z,99.90
2018-09-03T19:55:22.753Z,99.90
2018-09-03T19:57:52.189Z,99.90
2018-09-03T20:00:21.756Z,99.90
2018-09-03T20:02:51.214Z,99.90
2018-09-03T20:05:20.700Z,99.90
2018-09-03T20:07:50.187Z,99.90
2018-09-03T20:10:19.597Z,99.90
2018-09-03T20:12:48.948Z,99.90
2018-09-03T20:15:23.388Z,99.90
2018-09-03T20:17:52.751Z,99.90
2018-09-03T20:20:22.181Z,99.90
2018-09-03T20:22:51.882Z,99.90
2018-09-03T20:25:21.444Z,99.90
2018-09-03T20:27:50.796Z,99.90
2018-09-03T20:30:20.247Z,99.90
2018-09-03T20:32:49.617Z,99.90
2018-09-03T20:35:19.001Z,99.90
2018-09-03T20:37:48.321Z,99.90
2018-09-03T20:40:17.755Z,99.90
2018-09-03T20:42:47.156Z,99.90
2018-09-03T20:45:16.528Z,99.90
2018-09-03T20:47:46.011Z,99.90
2018-09-03T20:50:15.469Z,99.90
2018-09-03T20:52:44.873Z,99.90
2018-09-03T20:55:14.596Z,99.90
2018-09-03T20:57:43.967Z,99.90
2018-09-03T21:00:13.393Z,99.90
2018-09-03T21:02:42.793Z,99.90
2018-09-03T21:05:12.151Z,99.90
2018-09-03T21:07:41.593Z,99.90
2018-09-03T21:10:11.012Z,99.90
2018-09-03T21:12:40.352Z,99.90
2018-09-03T21:15:09.717Z,99.90
2018-09-03T21:17:39.070Z,99.90
2018-09-03T21:20:08.533Z,99.90
2018-09-03T21:22:37.877Z,99.90
2018-09-03T21:25:07.486Z,99.90
2018-09-03T21:27:36.937Z,99.90
2018-09-03T21:30:06.887Z,99.90
2018-09-03T21:32:36.237Z,99.90
2018-09-03T21:35:06.527Z,99.90
2018-09-03T21:37:36.115Z,99.90
2018-09-03T21:40:06.957Z,99.90
2018-09-03T21:42:36.314Z,99.90
2018-09-03T21:45:05.744Z,99.90
2018-09-03T21:47:35.078Z,99.90
2018-09-03T21:50:04.547Z,99.90
2018-09-03T21:52:33.918Z,99.90
2018-09-03T21:55:03.257Z,99.90
2018-09-03T21:57:32.722Z,99.90
2018-09-03T22:00:02.124Z,99.90
2018-09-03T22:02:31.567Z,99.90
2018-09-03T22:05:00.931Z,99.90
2018-09-03T22:07:30.286Z,99.90
2018-09-03T22:09:59.817Z,99.90
2018-09-03T22:12:29.158Z,99.90
2018-09-03T22:14:58.489Z,99.90
2018-09-03T22:17:27.845Z,99.90
2018-09-03T22:19:57.265Z,99.90
2018-09-03T22:22:26.597Z,99.90
2018-09-03T22:24:55.927Z,99.90
2018-09-03T22:27:25.300Z,99.90
2018-09-03T22:29:54.753Z,99.90
2018-09-03T22:32:24.120Z,99.90
2018-09-03T22:34:53.457Z,99.90
2018-09-03T22:37:22.814Z,99.90
2018-09-03T22:39:52.293Z,99.90
2018-09-03T22:42:28.273Z,99.90
2018-09-03T22:44:58.594Z,99.90
2018-09-03T22:47:27.948Z,99.90
2018-09-03T22:49:57.330Z,99.90
2018-09-03T22:52:26.696Z,99.90
2018-09-03T22:54:56.153Z,99.90
2018-09-03T22:57:25.509Z,99.90
2018-09-03T22:59:55.109Z,99.90
2018-09-03T23:02:24.465Z,99.90
2018-09-03T23:04:53.813Z,99.90
2018-09-03T23:07:23.143Z,99.90
2018-09-03T23:09:52.549Z,99.90
2018-09-03T23:12:21.902Z,99.90
2018-09-03T23:14:51.283Z,99.90
2018-09-03T23:17:20.629Z,99.90
2018-09-03T23:19:50.095Z,99.90
2018-09-03T23:22:19.486Z,99.90
2018-09-03T23:24:48.800Z,99.90
2018-09-03T23:27:18.133Z,99.90
2018-09-03T23:29:47.517Z,99.90
2018-09-03T23:32:16.941Z,99.90
2018-09-03T23:34:46.393Z,99.90
2018-09-03T23:37:15.744Z,99.90
2018-09-03T23:39:45.101Z,99.90
2018-09-03T23:42:14.428Z,99.90
2018-09-03T23:44:43.907Z,99.90
2018-09-03T23:47:13.273Z,99.90
2018-09-03T23:49:42.605Z,99.90
2018-09-03T23:52:12.056Z,99.90
2018-09-03T23:54:41.387Z,99.90
2018-09-03T23:57:10.742Z,99.90
2018-09-03T23:59:40.501Z,99.90
